sensor_id;sensor_type;location;lat;lon;timestamp;pressure;altitude;pressure_sealevel;temperature;humidity
23361;BME280;11852;50.082;18.554;2023-03-04T00:00:20;98727.5;;;0.43;86.1
23361;BME280;11852;50.082;18.554;2023-03-04T00:01:48;98724.0;;;0.38;86.14
23361;BME280;11852;50.082;18.554;2023-03-04T00:02:57;98721.5;;;0.38;86.16
23361;BME280;11852;50.082;18.554;2023-03-04T00:04:04;98722.0;;;0.36;86.22
23361;BME280;11852;50.082;18.554;2023-03-04T00:05:11;98721.5;;;0.41;86.01
23361;BME280;11852;50.082;18.554;2023-03-04T00:06:18;98723.5;;;0.42;85.85
23361;BME280;11852;50.082;18.554;2023-03-04T00:07:28;98719.49;;;0.35;86.24
23361;BME280;11852;50.082;18.554;2023-03-04T00:08:35;98715.5;;;0.36;86.22
23361;BME280;11852;50.082;18.554;2023-03-04T00:10:07;98714.5;;;0.24;86.63
23361;BME280;11852;50.082;18.554;2023-03-04T00:11:54;98713.0;;;0.32;86.25
23361;BME280;11852;50.082;18.554;2023-03-04T00:13:19;98712.5;;;0.45;85.9
23361;BME280;11852;50.082;18.554;2023-03-04T00:14:27;98708.5;;;0.45;85.97
23361;BME280;11852;50.082;18.554;2023-03-04T00:15:37;98707.5;;;0.44;86.1
23361;BME280;11852;50.082;18.554;2023-03-04T00:16:45;98703.5;;;0.39;86.21
23361;BME280;11852;50.082;18.554;2023-03-04T00:18:14;98703.0;;;0.44;85.9
23361;BME280;11852;50.082;18.554;2023-03-04T00:19:21;98701.0;;;0.46;85.82
23361;BME280;11852;50.082;18.554;2023-03-04T00:20:39;98697.0;;;0.42;85.92
23361;BME280;11852;50.082;18.554;2023-03-04T00:22:00;98699.5;;;0.37;86.03
23361;BME280;11852;50.082;18.554;2023-03-04T00:23:34;98699.5;;;0.33;86.16
23361;BME280;11852;50.082;18.554;2023-03-04T00:24:43;98700.0;;;0.42;85.71
23361;BME280;11852;50.082;18.554;2023-03-04T00:25:55;98699.0;;;0.38;86.0
23361;BME280;11852;50.082;18.554;2023-03-04T00:27:03;98697.5;;;0.39;85.93
23361;BME280;11852;50.082;18.554;2023-03-04T00:28:13;98691.5;;;0.27;86.33
23361;BME280;11852;50.082;18.554;2023-03-04T00:29:49;98692.0;;;0.44;85.77
23361;BME280;11852;50.082;18.554;2023-03-04T00:31:06;98691.0;;;0.46;85.72
23361;BME280;11852;50.082;18.554;2023-03-04T00:32:14;98691.0;;;0.61;85.29
23361;BME280;11852;50.082;18.554;2023-03-04T00:33:54;98690.0;;;0.71;85.04
23361;BME280;11852;50.082;18.554;2023-03-04T00:35:28;98689.0;;;0.59;85.41
23361;BME280;11852;50.082;18.554;2023-03-04T00:36:55;98685.5;;;0.49;85.64
23361;BME280;11852;50.082;18.554;2023-03-04T00:38:02;98682.49;;;0.52;85.43
23361;BME280;11852;50.082;18.554;2023-03-04T00:39:29;98679.5;;;0.69;85.1
23361;BME280;11852;50.082;18.554;2023-03-04T00:41:17;98678.0;;;0.75;84.84
23361;BME280;11852;50.082;18.554;2023-03-04T00:43:54;98672.5;;;0.82;84.71
23361;BME280;11852;50.082;18.554;2023-03-04T00:45:15;98671.0;;;0.76;84.81
23361;BME280;11852;50.082;18.554;2023-03-04T00:47:35;98667.0;;;0.87;84.56
23361;BME280;11852;50.082;18.554;2023-03-04T00:49:02;98663.5;;;0.71;84.96
23361;BME280;11852;50.082;18.554;2023-03-04T00:50:09;98665.0;;;0.57;85.18
23361;BME280;11852;50.082;18.554;2023-03-04T00:51:29;98663.0;;;0.63;84.94
23361;BME280;11852;50.082;18.554;2023-03-04T00:53:27;98663.0;;;0.51;85.22
23361;BME280;11852;50.082;18.554;2023-03-04T00:54:36;98660.5;;;0.56;85.1
23361;BME280;11852;50.082;18.554;2023-03-04T00:55:43;98661.5;;;0.45;85.42
23361;BME280;11852;50.082;18.554;2023-03-04T00:57:39;98657.0;;;0.46;85.24
23361;BME280;11852;50.082;18.554;2023-03-04T00:58:51;98656.0;;;0.22;85.91
23361;BME280;11852;50.082;18.554;2023-03-04T01:00:09;98655.5;;;0.29;85.71
23361;BME280;11852;50.082;18.554;2023-03-04T01:01:54;98651.0;;;0.57;85.04
23361;BME280;11852;50.082;18.554;2023-03-04T01:03:50;98646.0;;;0.6;85.08
23361;BME280;11852;50.082;18.554;2023-03-04T01:05:55;98638.5;;;0.5;85.14
23361;BME280;11852;50.082;18.554;2023-03-04T01:07:36;98637.0;;;0.3;85.65
23361;BME280;11852;50.082;18.554;2023-03-04T01:08:47;98636.5;;;0.29;85.65
23361;BME280;11852;50.082;18.554;2023-03-04T01:09:58;98635.5;;;0.17;86.13
23361;BME280;11852;50.082;18.554;2023-03-04T01:11:07;98633.0;;;0.15;86.08
23361;BME280;11852;50.082;18.554;2023-03-04T01:13:33;98627.5;;;0.07;86.05
23361;BME280;11852;50.082;18.554;2023-03-04T01:15:00;98622.0;;;0.06;86.19
23361;BME280;11852;50.082;18.554;2023-03-04T01:16:08;98623.5;;;-0.08;86.68
23361;BME280;11852;50.082;18.554;2023-03-04T01:17:15;98624.0;;;-0.02;86.4
23361;BME280;11852;50.082;18.554;2023-03-04T01:18:25;98628.0;;;0.11;86.04
23361;BME280;11852;50.082;18.554;2023-03-04T01:19:32;98624.5;;;-0.11;86.79
23361;BME280;11852;50.082;18.554;2023-03-04T01:21:06;98624.0;;;-0.1;86.67
23361;BME280;11852;50.082;18.554;2023-03-04T01:22:21;98620.0;;;0.03;86.23
23361;BME280;11852;50.082;18.554;2023-03-04T01:23:41;98618.5;;;-0.06;86.52
23361;BME280;11852;50.082;18.554;2023-03-04T01:24:54;98615.5;;;-0.1;86.49
23361;BME280;11852;50.082;18.554;2023-03-04T01:26:32;98612.5;;;-0.05;86.43
23361;BME280;11852;50.082;18.554;2023-03-04T01:27:44;98611.0;;;-0.01;86.43
23361;BME280;11852;50.082;18.554;2023-03-04T01:28:52;98605.5;;;0.06;86.26
23361;BME280;11852;50.082;18.554;2023-03-04T01:30:07;98602.0;;;-0.03;86.42
23361;BME280;11852;50.082;18.554;2023-03-04T01:31:30;98603.0;;;0.09;86.04
23361;BME280;11852;50.082;18.554;2023-03-04T01:32:52;98600.0;;;0.14;85.84
23361;BME280;11852;50.082;18.554;2023-03-04T01:34:01;98596.0;;;0.19;85.75
23361;BME280;11852;50.082;18.554;2023-03-04T01:35:08;98595.0;;;0.24;85.65
23361;BME280;11852;50.082;18.554;2023-03-04T01:36:34;98590.0;;;0.25;85.69
23361;BME280;11852;50.082;18.554;2023-03-04T01:37:48;98587.5;;;0.32;85.38
23361;BME280;11852;50.082;18.554;2023-03-04T01:40:02;98585.5;;;0.44;85.0
23361;BME280;11852;50.082;18.554;2023-03-04T01:41:18;98584.5;;;0.34;85.04
23361;BME280;11852;50.082;18.554;2023-03-04T01:43:37;98584.0;;;0.01;86.01
23361;BME280;11852;50.082;18.554;2023-03-04T01:44:45;98581.5;;;-0.11;86.37
23361;BME280;11852;50.082;18.554;2023-03-04T01:46:15;98581.0;;;0.03;85.99
23361;BME280;11852;50.082;18.554;2023-03-04T01:47:43;98575.5;;;0.11;85.81
23361;BME280;11852;50.082;18.554;2023-03-04T01:48:52;98577.5;;;0.12;85.86
23361;BME280;11852;50.082;18.554;2023-03-04T01:50:01;98579.0;;;0.12;85.91
23361;BME280;11852;50.082;18.554;2023-03-04T01:51:11;98573.5;;;0.3;85.49
23361;BME280;11852;50.082;18.554;2023-03-04T01:52:24;98572.5;;;0.18;85.79
23361;BME280;11852;50.082;18.554;2023-03-04T01:53:36;98569.0;;;0.06;85.9
23361;BME280;11852;50.082;18.554;2023-03-04T01:54:43;98568.01;;;0.07;85.8
23361;BME280;11852;50.082;18.554;2023-03-04T01:56:18;98571.0;;;-0.17;86.42
23361;BME280;11852;50.082;18.554;2023-03-04T01:57:22;98571.5;;;-0.26;86.6
23361;BME280;11852;50.082;18.554;2023-03-04T01:58:36;98567.5;;;-0.13;86.13
23361;BME280;11852;50.082;18.554;2023-03-04T01:59:43;98566.0;;;-0.27;86.68
23361;BME280;11852;50.082;18.554;2023-03-04T02:01:02;98560.5;;;-0.36;86.71
23361;BME280;11852;50.082;18.554;2023-03-04T02:02:15;98554.5;;;-0.29;86.6
23361;BME280;11852;50.082;18.554;2023-03-04T02:03:31;98555.5;;;-0.34;86.81
23361;BME280;11852;50.082;18.554;2023-03-04T02:04:41;98555.01;;;-0.35;86.92
23361;BME280;11852;50.082;18.554;2023-03-04T02:05:49;98547.5;;;-0.34;86.9
23361;BME280;11852;50.082;18.554;2023-03-04T02:06:58;98547.0;;;-0.2;86.51
23361;BME280;11852;50.082;18.554;2023-03-04T02:08:05;98543.01;;;-0.19;86.54
23361;BME280;11852;50.082;18.554;2023-03-04T02:09:25;98539.5;;;-0.14;86.32
23361;BME280;11852;50.082;18.554;2023-03-04T02:10:45;98541.5;;;-0.12;86.33
23361;BME280;11852;50.082;18.554;2023-03-04T02:11:55;98541.0;;;0.0;86.07
23361;BME280;11852;50.082;18.554;2023-03-04T02:13:12;98534.0;;;0.04;86.15
23361;BME280;11852;50.082;18.554;2023-03-04T02:14:19;98536.5;;;0.01;86.12
23361;BME280;11852;50.082;18.554;2023-03-04T02:15:41;98534.5;;;-0.03;86.15
23361;BME280;11852;50.082;18.554;2023-03-04T02:16:52;98530.01;;;-0.09;86.33
23361;BME280;11852;50.082;18.554;2023-03-04T02:17:59;98530.0;;;0.03;86.03
23361;BME280;11852;50.082;18.554;2023-03-04T02:20:35;98526.5;;;-0.13;86.18
23361;BME280;11852;50.082;18.554;2023-03-04T02:22:02;98524.0;;;-0.21;86.44
23361;BME280;11852;50.082;18.554;2023-03-04T02:23:20;98527.0;;;-0.13;86.17
23361;BME280;11852;50.082;18.554;2023-03-04T02:24:32;98525.5;;;-0.16;86.22
23361;BME280;11852;50.082;18.554;2023-03-04T02:27:38;98509.5;;;0.11;85.54
23361;BME280;11852;50.082;18.554;2023-03-04T02:28:52;98511.5;;;0.19;85.47
23361;BME280;11852;50.082;18.554;2023-03-04T02:30:01;98509.0;;;0.01;85.85
23361;BME280;11852;50.082;18.554;2023-03-04T02:31:16;98509.5;;;-0.04;85.8
23361;BME280;11852;50.082;18.554;2023-03-04T02:32:18;98508.5;;;-0.15;85.96
23361;BME280;11852;50.082;18.554;2023-03-04T02:33:26;98505.01;;;-0.15;85.76
23361;BME280;11852;50.082;18.554;2023-03-04T02:34:59;98504.51;;;-0.13;85.66
23361;BME280;11852;50.082;18.554;2023-03-04T02:36:33;98505.0;;;-0.17;85.82
23361;BME280;11852;50.082;18.554;2023-03-04T02:37:42;98507.5;;;-0.07;85.56
23361;BME280;11852;50.082;18.554;2023-03-04T02:38:59;98509.5;;;0.04;85.15
23361;BME280;11852;50.082;18.554;2023-03-04T02:40:04;98507.99;;;0.16;84.96
23361;BME280;11852;50.082;18.554;2023-03-04T02:41:12;98507.5;;;0.17;84.9
23361;BME280;11852;50.082;18.554;2023-03-04T02:42:25;98503.5;;;0.24;84.68
23361;BME280;11852;50.082;18.554;2023-03-04T02:43:37;98506.0;;;0.17;84.66
23361;BME280;11852;50.082;18.554;2023-03-04T02:45:27;98504.51;;;0.3;84.38
23361;BME280;11852;50.082;18.554;2023-03-04T02:46:33;98498.0;;;0.32;84.35
23361;BME280;11852;50.082;18.554;2023-03-04T02:47:42;98498.0;;;0.34;84.21
23361;BME280;11852;50.082;18.554;2023-03-04T02:48:50;98494.5;;;0.38;84.14
23361;BME280;11852;50.082;18.554;2023-03-04T02:50:04;98494.0;;;0.39;84.08
23361;BME280;11852;50.082;18.554;2023-03-04T02:51:14;98492.0;;;0.36;84.03
23361;BME280;11852;50.082;18.554;2023-03-04T02:52:22;98491.0;;;0.39;83.9
23361;BME280;11852;50.082;18.554;2023-03-04T02:53:28;98492.51;;;0.3;83.99
23361;BME280;11852;50.082;18.554;2023-03-04T02:54:36;98485.5;;;0.32;83.86
23361;BME280;11852;50.082;18.554;2023-03-04T02:55:52;98482.5;;;0.25;83.88
23361;BME280;11852;50.082;18.554;2023-03-04T02:57:00;98481.5;;;0.2;83.85
23361;BME280;11852;50.082;18.554;2023-03-04T02:58:09;98477.5;;;0.22;83.81
23361;BME280;11852;50.082;18.554;2023-03-04T02:59:18;98475.0;;;0.23;83.79
23361;BME280;11852;50.082;18.554;2023-03-04T03:00:27;98473.0;;;0.22;83.78
23361;BME280;11852;50.082;18.554;2023-03-04T03:01:45;98469.5;;;0.2;83.85
23361;BME280;11852;50.082;18.554;2023-03-04T03:02:53;98466.5;;;0.1;83.96
23361;BME280;11852;50.082;18.554;2023-03-04T03:04:03;98466.0;;;0.13;83.82
23361;BME280;11852;50.082;18.554;2023-03-04T03:05:24;98461.5;;;0.11;83.81
23361;BME280;11852;50.082;18.554;2023-03-04T03:06:30;98462.5;;;-0.01;83.91
23361;BME280;11852;50.082;18.554;2023-03-04T03:07:38;98463.5;;;-0.1;84.0
23361;BME280;11852;50.082;18.554;2023-03-04T03:08:56;98460.5;;;-0.13;83.88
23361;BME280;11852;50.082;18.554;2023-03-04T03:10:04;98462.0;;;-0.15;84.06
23361;BME280;11852;50.082;18.554;2023-03-04T03:11:12;98459.0;;;-0.3;84.39
23361;BME280;11852;50.082;18.554;2023-03-04T03:12:33;98462.5;;;-0.23;84.26
23361;BME280;11852;50.082;18.554;2023-03-04T03:13:41;98464.5;;;-0.24;84.18
23361;BME280;11852;50.082;18.554;2023-03-04T03:14:48;98460.0;;;-0.43;84.59
23361;BME280;11852;50.082;18.554;2023-03-04T03:15:55;98460.5;;;-0.35;84.33
23361;BME280;11852;50.082;18.554;2023-03-04T03:17:02;98454.0;;;-0.41;84.6
23361;BME280;11852;50.082;18.554;2023-03-04T03:18:10;98450.5;;;-0.46;84.63
23361;BME280;11852;50.082;18.554;2023-03-04T03:19:24;98452.0;;;-0.48;84.68
23361;BME280;11852;50.082;18.554;2023-03-04T03:20:34;98450.0;;;-0.45;84.72
23361;BME280;11852;50.082;18.554;2023-03-04T03:21:42;98449.5;;;-0.48;84.84
23361;BME280;11852;50.082;18.554;2023-03-04T03:22:49;98449.0;;;-0.44;84.63
23361;BME280;11852;50.082;18.554;2023-03-04T03:24:01;98452.0;;;-0.36;84.49
23361;BME280;11852;50.082;18.554;2023-03-04T03:25:11;98450.0;;;-0.42;84.69
23361;BME280;11852;50.082;18.554;2023-03-04T03:26:18;98454.0;;;-0.39;84.4
23361;BME280;11852;50.082;18.554;2023-03-04T03:27:27;98457.0;;;-0.37;84.33
23361;BME280;11852;50.082;18.554;2023-03-04T03:28:36;98455.01;;;-0.3;84.3
23361;BME280;11852;50.082;18.554;2023-03-04T03:29:50;98454.0;;;-0.28;84.26
23361;BME280;11852;50.082;18.554;2023-03-04T03:31:01;98454.51;;;-0.28;84.29
23361;BME280;11852;50.082;18.554;2023-03-04T03:32:07;98456.99;;;-0.26;84.18
23361;BME280;11852;50.082;18.554;2023-03-04T03:33:16;98457.49;;;-0.23;84.1
23361;BME280;11852;50.082;18.554;2023-03-04T03:34:27;98459.0;;;-0.19;83.96
23361;BME280;11852;50.082;18.554;2023-03-04T03:35:39;98460.5;;;-0.18;83.94
23361;BME280;11852;50.082;18.554;2023-03-04T03:36:48;98462.0;;;-0.18;83.97
23361;BME280;11852;50.082;18.554;2023-03-04T03:37:55;98461.5;;;-0.15;83.88
23361;BME280;11852;50.082;18.554;2023-03-04T03:39:03;98459.0;;;-0.17;83.92
23361;BME280;11852;50.082;18.554;2023-03-04T03:40:12;98458.5;;;-0.15;83.82
23361;BME280;11852;50.082;18.554;2023-03-04T03:41:19;98456.0;;;-0.14;83.77
23361;BME280;11852;50.082;18.554;2023-03-04T03:42:27;98451.5;;;-0.15;83.68
23361;BME280;11852;50.082;18.554;2023-03-04T03:43:36;98451.0;;;-0.13;83.74
23361;BME280;11852;50.082;18.554;2023-03-04T03:44:43;98452.0;;;-0.13;83.75
23361;BME280;11852;50.082;18.554;2023-03-04T03:45:52;98456.0;;;-0.11;83.65
23361;BME280;11852;50.082;18.554;2023-03-04T03:46:59;98455.0;;;-0.13;83.61
23361;BME280;11852;50.082;18.554;2023-03-04T03:48:06;98457.0;;;-0.1;83.56
23361;BME280;11852;50.082;18.554;2023-03-04T03:49:13;98461.5;;;-0.09;83.62
23361;BME280;11852;50.082;18.554;2023-03-04T03:50:21;98459.5;;;-0.19;83.68
23361;BME280;11852;50.082;18.554;2023-03-04T03:51:31;98461.0;;;-0.21;83.51
23361;BME280;11852;50.082;18.554;2023-03-04T03:52:40;98460.5;;;-0.23;83.57
23361;BME280;11852;50.082;18.554;2023-03-04T03:53:47;98457.49;;;-0.22;83.53
23361;BME280;11852;50.082;18.554;2023-03-04T03:54:55;98459.0;;;-0.22;83.54
23361;BME280;11852;50.082;18.554;2023-03-04T03:56:02;98458.5;;;-0.26;83.67
23361;BME280;11852;50.082;18.554;2023-03-04T03:57:09;98456.99;;;-0.29;83.54
23361;BME280;11852;50.082;18.554;2023-03-04T03:58:20;98463.0;;;-0.28;83.52
23361;BME280;11852;50.082;18.554;2023-03-04T03:59:28;98461.0;;;-0.3;83.6
23361;BME280;11852;50.082;18.554;2023-03-04T04:00:40;98461.0;;;-0.32;83.54
23361;BME280;11852;50.082;18.554;2023-03-04T04:01:50;98461.5;;;-0.29;83.56
23361;BME280;11852;50.082;18.554;2023-03-04T04:03:06;98457.99;;;-0.28;83.57
23361;BME280;11852;50.082;18.554;2023-03-04T04:04:13;98456.5;;;-0.26;83.56
23361;BME280;11852;50.082;18.554;2023-03-04T04:05:21;98454.0;;;-0.26;83.52
23361;BME280;11852;50.082;18.554;2023-03-04T04:06:28;98453.5;;;-0.27;83.63
23361;BME280;11852;50.082;18.554;2023-03-04T04:07:38;98456.99;;;-0.31;83.67
23361;BME280;11852;50.082;18.554;2023-03-04T04:08:45;98457.49;;;-0.31;83.68
23361;BME280;11852;50.082;18.554;2023-03-04T04:09:55;98456.99;;;-0.37;83.72
23361;BME280;11852;50.082;18.554;2023-03-04T04:11:09;98459.5;;;-0.34;83.63
23361;BME280;11852;50.082;18.554;2023-03-04T04:12:19;98460.5;;;-0.3;83.59
23361;BME280;11852;50.082;18.554;2023-03-04T04:13:34;98459.5;;;-0.27;83.63
23361;BME280;11852;50.082;18.554;2023-03-04T04:14:41;98455.5;;;-0.23;83.63
23361;BME280;11852;50.082;18.554;2023-03-04T04:15:50;98457.5;;;-0.22;83.71
23361;BME280;11852;50.082;18.554;2023-03-04T04:16:58;98459.0;;;-0.22;83.78
23361;BME280;11852;50.082;18.554;2023-03-04T04:18:27;98459.5;;;-0.22;83.77
23361;BME280;11852;50.082;18.554;2023-03-04T04:19:39;98458.5;;;-0.18;83.71
23361;BME280;11852;50.082;18.554;2023-03-04T04:20:46;98456.5;;;-0.2;83.82
23361;BME280;11852;50.082;18.554;2023-03-04T04:21:53;98458.5;;;-0.23;83.77
23361;BME280;11852;50.082;18.554;2023-03-04T04:23:00;98456.5;;;-0.17;83.71
23361;BME280;11852;50.082;18.554;2023-03-04T04:24:10;98458.0;;;-0.17;83.76
23361;BME280;11852;50.082;18.554;2023-03-04T04:25:26;98456.0;;;-0.21;83.97
23361;BME280;11852;50.082;18.554;2023-03-04T04:26:38;98456.49;;;-0.25;84.11
23361;BME280;11852;50.082;18.554;2023-03-04T04:27:48;98461.0;;;-0.21;83.85
23361;BME280;11852;50.082;18.554;2023-03-04T04:29:11;98461.5;;;-0.29;84.02
23361;BME280;11852;50.082;18.554;2023-03-04T04:30:17;98462.5;;;-0.28;84.03
23361;BME280;11852;50.082;18.554;2023-03-04T04:31:36;98460.5;;;-0.26;84.0
23361;BME280;11852;50.082;18.554;2023-03-04T04:32:43;98460.5;;;-0.32;84.18
23361;BME280;11852;50.082;18.554;2023-03-04T04:33:56;98462.0;;;-0.26;84.01
23361;BME280;11852;50.082;18.554;2023-03-04T04:35:13;98462.0;;;-0.21;84.04
23361;BME280;11852;50.082;18.554;2023-03-04T04:36:27;98463.0;;;-0.16;84.06
23361;BME280;11852;50.082;18.554;2023-03-04T04:37:34;98464.0;;;-0.13;84.04
23361;BME280;11852;50.082;18.554;2023-03-04T04:38:49;98462.5;;;-0.14;84.13
23361;BME280;11852;50.082;18.554;2023-03-04T04:39:56;98462.0;;;-0.23;84.23
23361;BME280;11852;50.082;18.554;2023-03-04T04:41:03;98464.5;;;-0.17;83.99
23361;BME280;11852;50.082;18.554;2023-03-04T04:42:11;98464.5;;;-0.15;84.03
23361;BME280;11852;50.082;18.554;2023-03-04T04:43:19;98465.5;;;-0.22;84.13
23361;BME280;11852;50.082;18.554;2023-03-04T04:44:38;98470.49;;;-0.18;83.97
23361;BME280;11852;50.082;18.554;2023-03-04T04:45:45;98467.01;;;-0.12;83.87
23361;BME280;11852;50.082;18.554;2023-03-04T04:46:52;98466.0;;;-0.1;83.83
23361;BME280;11852;50.082;18.554;2023-03-04T04:48:00;98468.5;;;-0.08;83.88
23361;BME280;11852;50.082;18.554;2023-03-04T04:49:09;98468.01;;;-0.05;83.94
23361;BME280;11852;50.082;18.554;2023-03-04T04:50:27;98469.0;;;-0.03;83.89
23361;BME280;11852;50.082;18.554;2023-03-04T04:51:38;98468.01;;;-0.14;84.37
23361;BME280;11852;50.082;18.554;2023-03-04T04:52:50;98466.0;;;-0.35;84.49
23361;BME280;11852;50.082;18.554;2023-03-04T04:54:01;98465.0;;;-0.38;84.4
23361;BME280;11852;50.082;18.554;2023-03-04T04:55:08;98466.0;;;-0.51;84.76
23361;BME280;11852;50.082;18.554;2023-03-04T04:56:16;98466.0;;;-0.4;84.4
23361;BME280;11852;50.082;18.554;2023-03-04T04:57:22;98468.51;;;-0.2;84.21
23361;BME280;11852;50.082;18.554;2023-03-04T04:58:29;98468.0;;;-0.17;84.26
23361;BME280;11852;50.082;18.554;2023-03-04T04:59:37;98468.0;;;-0.22;84.37
23361;BME280;11852;50.082;18.554;2023-03-04T05:00:47;98473.5;;;-0.3;84.41
23361;BME280;11852;50.082;18.554;2023-03-04T05:01:55;98473.0;;;-0.44;84.87
23361;BME280;11852;50.082;18.554;2023-03-04T05:03:07;98472.5;;;-0.43;84.68
23361;BME280;11852;50.082;18.554;2023-03-04T05:04:16;98472.5;;;-0.4;84.64
23361;BME280;11852;50.082;18.554;2023-03-04T05:05:24;98474.5;;;-0.31;84.54
23361;BME280;11852;50.082;18.554;2023-03-04T05:06:34;98476.5;;;-0.23;84.43
23361;BME280;11852;50.082;18.554;2023-03-04T05:07:43;98475.0;;;-0.17;84.38
23361;BME280;11852;50.082;18.554;2023-03-04T05:08:50;98474.5;;;-0.46;85.18
23361;BME280;11852;50.082;18.554;2023-03-04T05:09:58;98474.5;;;-0.48;84.71
23361;BME280;11852;50.082;18.554;2023-03-04T05:11:06;98475.0;;;-0.86;85.82
23361;BME280;11852;50.082;18.554;2023-03-04T05:12:17;98477.0;;;-0.76;85.56
23361;BME280;11852;50.082;18.554;2023-03-04T05:13:29;98474.0;;;-1.03;86.4
23361;BME280;11852;50.082;18.554;2023-03-04T05:14:37;98471.0;;;-1.04;86.24
23361;BME280;11852;50.082;18.554;2023-03-04T05:15:46;98470.5;;;-0.88;85.93
23361;BME280;11852;50.082;18.554;2023-03-04T05:16:56;98469.0;;;-0.73;85.69
23361;BME280;11852;50.082;18.554;2023-03-04T05:18:03;98467.01;;;-0.68;85.63
23361;BME280;11852;50.082;18.554;2023-03-04T05:19:10;98467.51;;;-0.71;85.71
23361;BME280;11852;50.082;18.554;2023-03-04T05:20:19;98464.5;;;-0.8;85.72
23361;BME280;11852;50.082;18.554;2023-03-04T05:21:27;98467.0;;;-0.81;85.71
23361;BME280;11852;50.082;18.554;2023-03-04T05:22:35;98471.0;;;-0.8;85.84
23361;BME280;11852;50.082;18.554;2023-03-04T05:23:44;98469.99;;;-0.8;85.56
23361;BME280;11852;50.082;18.554;2023-03-04T05:24:53;98469.99;;;-0.78;85.7
23361;BME280;11852;50.082;18.554;2023-03-04T05:26:00;98468.0;;;-0.67;85.29
23361;BME280;11852;50.082;18.554;2023-03-04T05:27:16;98468.0;;;-0.63;85.25
23361;BME280;11852;50.082;18.554;2023-03-04T05:28:24;98465.0;;;-0.77;85.69
23361;BME280;11852;50.082;18.554;2023-03-04T05:29:31;98467.51;;;-0.55;84.97
23361;BME280;11852;50.082;18.554;2023-03-04T05:30:40;98468.0;;;-0.48;84.89
23361;BME280;11852;50.082;18.554;2023-03-04T05:31:50;98468.5;;;-0.44;84.87
23361;BME280;11852;50.082;18.554;2023-03-04T05:32:57;98471.0;;;-0.36;84.66
23361;BME280;11852;50.082;18.554;2023-03-04T05:34:04;98470.5;;;-0.39;84.65
23361;BME280;11852;50.082;18.554;2023-03-04T05:35:11;98473.5;;;-0.38;84.62
23361;BME280;11852;50.082;18.554;2023-03-04T05:36:19;98471.0;;;-0.36;84.57
23361;BME280;11852;50.082;18.554;2023-03-04T05:37:27;98469.0;;;-0.31;84.49
23361;BME280;11852;50.082;18.554;2023-03-04T05:38:49;98471.5;;;-0.27;84.43
23361;BME280;11852;50.082;18.554;2023-03-04T05:40:03;98470.0;;;-0.31;84.49
23361;BME280;11852;50.082;18.554;2023-03-04T05:41:10;98469.5;;;-0.32;84.51
23361;BME280;11852;50.082;18.554;2023-03-04T05:42:18;98466.5;;;-0.31;84.44
23361;BME280;11852;50.082;18.554;2023-03-04T05:43:26;98471.0;;;-0.32;84.47
23361;BME280;11852;50.082;18.554;2023-03-04T05:44:32;98469.0;;;-0.28;84.35
23361;BME280;11852;50.082;18.554;2023-03-04T05:45:49;98472.5;;;-0.21;84.3
23361;BME280;11852;50.082;18.554;2023-03-04T05:46:59;98470.49;;;-0.25;84.32
23361;BME280;11852;50.082;18.554;2023-03-04T05:48:07;98471.5;;;-0.26;84.32
23361;BME280;11852;50.082;18.554;2023-03-04T05:49:22;98473.5;;;-0.28;84.4
23361;BME280;11852;50.082;18.554;2023-03-04T05:50:29;98469.99;;;-0.34;84.49
23361;BME280;11852;50.082;18.554;2023-03-04T05:51:47;98470.0;;;-0.26;84.34
23361;BME280;11852;50.082;18.554;2023-03-04T05:52:56;98469.5;;;-0.22;84.3
23361;BME280;11852;50.082;18.554;2023-03-04T05:54:07;98467.0;;;-0.23;84.27
23361;BME280;11852;50.082;18.554;2023-03-04T05:55:26;98466.5;;;-0.19;84.13
23361;BME280;11852;50.082;18.554;2023-03-04T05:56:33;98464.0;;;-0.21;84.24
23361;BME280;11852;50.082;18.554;2023-03-04T05:57:41;98461.0;;;-0.24;84.31
23361;BME280;11852;50.082;18.554;2023-03-04T05:58:51;98460.5;;;-0.17;84.31
23361;BME280;11852;50.082;18.554;2023-03-04T06:02:19;98460.5;;;-0.19;84.35
23361;BME280;11852;50.082;18.554;2023-03-04T06:03:28;98461.5;;;-0.16;84.34
23361;BME280;11852;50.082;18.554;2023-03-04T06:04:38;98461.0;;;-0.15;84.43
23361;BME280;11852;50.082;18.554;2023-03-04T06:05:45;98461.0;;;-0.2;84.47
23361;BME280;11852;50.082;18.554;2023-03-04T06:06:53;98460.5;;;-0.25;84.51
23361;BME280;11852;50.082;18.554;2023-03-04T06:08:00;98464.5;;;-0.19;84.31
23361;BME280;11852;50.082;18.554;2023-03-04T06:09:12;98468.51;;;-0.1;84.2
23361;BME280;11852;50.082;18.554;2023-03-04T06:10:19;98475.0;;;-0.02;84.08
23361;BME280;11852;50.082;18.554;2023-03-04T06:11:28;98475.0;;;0.02;84.1
23361;BME280;11852;50.082;18.554;2023-03-04T06:12:41;98473.5;;;-0.05;84.15
23361;BME280;11852;50.082;18.554;2023-03-04T06:13:48;98472.5;;;-0.01;84.03
23361;BME280;11852;50.082;18.554;2023-03-04T06:14:55;98473.0;;;-0.03;84.07
23361;BME280;11852;50.082;18.554;2023-03-04T06:16:24;98476.0;;;-0.06;84.09
23361;BME280;11852;50.082;18.554;2023-03-04T06:17:32;98474.0;;;-0.04;83.96
23361;BME280;11852;50.082;18.554;2023-03-04T06:18:41;98473.0;;;0.03;83.87
23361;BME280;11852;50.082;18.554;2023-03-04T06:20:12;98472.5;;;-0.33;84.96
23361;BME280;11852;50.082;18.554;2023-03-04T06:21:19;98469.99;;;-0.3;84.6
23361;BME280;11852;50.082;18.554;2023-03-04T06:22:42;98472.0;;;-0.41;85.04
23361;BME280;11852;50.082;18.554;2023-03-04T06:24:13;98471.0;;;-0.44;85.01
23361;BME280;11852;50.082;18.554;2023-03-04T06:25:20;98470.0;;;-0.54;85.49
23361;BME280;11852;50.082;18.554;2023-03-04T06:26:37;98469.5;;;-0.46;85.32
23361;BME280;11852;50.082;18.554;2023-03-04T06:27:51;98471.5;;;-0.57;85.63
23361;BME280;11852;50.082;18.554;2023-03-04T06:29:00;98473.5;;;-0.53;85.62
23361;BME280;11852;50.082;18.554;2023-03-04T06:30:13;98472.5;;;-0.63;85.91
23361;BME280;11852;50.082;18.554;2023-03-04T06:31:20;98473.0;;;-0.63;85.76
23361;BME280;11852;50.082;18.554;2023-03-04T06:32:31;98473.5;;;-0.5;85.51
23361;BME280;11852;50.082;18.554;2023-03-04T06:33:52;98475.5;;;-0.4;85.21
23361;BME280;11852;50.082;18.554;2023-03-04T06:35:11;98478.5;;;-0.34;84.96
23361;BME280;11852;50.082;18.554;2023-03-04T06:36:22;98478.5;;;-0.34;84.92
23361;BME280;11852;50.082;18.554;2023-03-04T06:39:05;98477.5;;;-0.22;84.76
23361;BME280;11852;50.082;18.554;2023-03-04T06:40:12;98475.5;;;-0.36;85.12
23361;BME280;11852;50.082;18.554;2023-03-04T06:41:19;98476.0;;;-0.47;85.32
23361;BME280;11852;50.082;18.554;2023-03-04T06:42:46;98476.0;;;-0.44;85.32